Terminal Aerodrome Forecast
Issued by NWS Tuscon, AZ

Home | Current Version | Previous Version | Text Only | Print | Product List | Glossary On
Versions: 1 2 3 4 5 6 7 8 9 10 11 12 13 14 15
000
FTUS45 KTWC 310000 AAB
TAFTUS
TAF AMD
KTUS 310045Z 3101/3124 23012G25KT P6SM -TSRA FEW040CB SCT100 BKN200
     FM310300 16010KT P6SM SCT100 BKN150
     FM310700 12005KT P6SM SCT120 BKN180
     FM311900 28010KT P6SM SCT100=

USA.gov is the U.S. government's official web portal to all federal, state and local government web resources and services.